Airfield :
LOGIN :

Register | Disclaimer

   EN    FR    IT 

 










Legend :    VFR   Marginal VFR   IFR   Intensive IFR   Very Intensive IFR
Visi :
Ceiling :
>= 8 km
>= 3000ft
5 to 8 km
1000 to 3000 ft
1500m to 5 km
500 to 1000 ft
800 to 1500m
200 to 500 ft
< 800m
< 200 ft
Symbols :   Thunderstorms  Fog  Heavy snow  Heavy precipitations  Wind > 20 kt
SIGMETs :     Misc.  Thunderstorms  Icing  Turbulence  Mountain Waves  Volcanic Ashes






- Airport Elevation : 616 ft
- IATA code : PUF


LFBP - Pau

CURRENT METAR :
  • 222230Z AUTO 23015KT 9999 -RA SCT021/// BKN028/// BKN040/// ///CB 06/05 Q1010 TEMPO 30017G30KT 3000 SHRA BKN012 FEW020CB BKN025TCU

EXPIRED METARs :
  • 222200Z AUTO 23013KT 9999 -RA BKN025/// BKN038/// BKN049/// ///CB 06/04 Q1010 TEMPO 30017G30KT 3000 SHRA BKN012 FEW020CB BKN025TCU
  • 222130Z AUTO 24013KT 9999 SCT024/// BKN033/// BKN041/// ///TCU 07/04 Q1010 TEMPO 30017G30KT 3000 SHRA BKN012 FEW020CB BKN025TCU
  • 222100Z AUTO 25013KT 9999 FEW014/// SCT026/// BKN031/// ///CB 07/05 Q1010 TEMPO 30017G30KT 3000 SHRA BKN012 FEW020CB BKN025TCU
  • 222030Z AUTO 23009KT 9999 BKN031/// BKN044/// BKN050/// ///TCU 06/05 Q1010 TEMPO 30017G30KT 3000 SHRA BKN012 FEW020CB BKN025TCU
  • 222000Z AUTO 25011KT 9999 FEW019/// BKN040/// OVC047/// ///CB 06/05 Q1010 TEMPO 30017G30KT 3000 SHRA BKN012 FEW020CB BKN025TCU

TAF TAF LFBP
Valid from the 22 at 18:00 until the 23 at 18:00 UTC


221700Z 2218/2318 25015KT 9999 BKN030
TEMPO 2218/2301 30017G30KT 3000 SHRA BKN012 FEW020CB BKN025TCU
TEMPO 2310/2318 4000 -RA BKN040
TEMPO 2315/2318 BKN015



MET'MAP, your aeronautical weather chart ! - Copyright ORBIFLY December 2007 - Disclaimer

ORBIFLY MET'MAP TEAM :

Programming & Development : Alexandra Zaïnal
Concept & original design : Baudouin d'Aumeries
Assistance for programming : Marc-Olivier Méhu
Technical & hardware support : Manuel Goepfert

Contact : metmap@orbifly.com




SOURCES & CREDITS :

   NOAA